createdAt,value
2018-06-21T00:01:54.681Z,65.55
2018-06-21T00:04:22.718Z,65.53
2018-06-21T00:06:50.655Z,66.44
2018-06-21T00:09:18.670Z,64.00
2018-06-21T00:11:46.589Z,67.78
2018-06-21T00:14:14.516Z,64.34
2018-06-21T00:16:42.463Z,67.26
2018-06-21T00:19:10.427Z,68.32
2018-06-21T00:21:38.310Z,69.52
2018-06-21T00:24:06.310Z,66.11
2018-06-21T00:26:34.258Z,64.78
2018-06-21T00:29:02.184Z,62.67
2018-06-21T00:31:30.074Z,61.31
2018-06-21T00:33:58.031Z,66.04
2018-06-21T00:36:25.957Z,68.11
2018-06-21T00:38:53.951Z,67.12
2018-06-21T00:41:21.881Z,66.76
2018-06-21T00:43:49.810Z,64.46
2018-06-21T00:46:17.691Z,67.35
2018-06-21T00:48:45.703Z,59.95
2018-06-21T00:51:13.619Z,67.59
2018-06-21T00:53:41.551Z,64.76
2018-06-21T00:56:16.452Z,65.43
2018-06-21T00:58:45.323Z,69.99
2018-06-21T01:01:13.906Z,71.09
2018-06-21T01:03:41.846Z,68.50
2018-06-21T01:06:09.764Z,67.50
2018-06-21T01:08:37.675Z,68.25
2018-06-21T01:11:05.915Z,71.85
2018-06-21T01:13:33.855Z,72.47
2018-06-21T01:16:01.843Z,71.25
2018-06-21T01:18:29.755Z,73.04
2018-06-21T01:20:57.661Z,69.86
2018-06-21T01:23:25.633Z,68.53
2018-06-21T01:25:53.550Z,72.17
2018-06-21T01:28:21.466Z,68.91
2018-06-21T01:30:49.466Z,71.40
2018-06-21T01:33:17.320Z,74.47
2018-06-21T01:35:45.269Z,73.32
2018-06-21T01:38:16.633Z,75.61
2018-06-21T01:40:44.496Z,73.70
2018-06-21T01:43:12.376Z,71.84
2018-06-21T01:45:40.317Z,70.72
2018-06-21T01:48:08.277Z,72.81
2018-06-21T01:50:37.010Z,74.72
2018-06-21T01:53:05.054Z,72.86
2018-06-21T01:55:33.245Z,75.71
2018-06-21T01:58:01.187Z,72.97
2018-06-21T02:00:29.090Z,72.56
2018-06-21T02:02:57.059Z,63.92
2018-06-21T02:05:25.026Z,70.20
2018-06-21T02:07:52.978Z,75.15
2018-06-21T02:10:20.908Z,72.82
2018-06-21T02:12:48.794Z,74.22
2018-06-21T02:15:16.712Z,70.22
2018-06-21T02:17:44.588Z,73.82
2018-06-21T02:20:12.455Z,74.56
2018-06-21T02:22:40.398Z,72.81
2018-06-21T02:25:08.234Z,75.38
2018-06-21T02:27:36.153Z,71.25
2018-06-21T02:30:04.315Z,72.32
2018-06-21T02:32:32.197Z,73.06
2018-06-21T02:35:00.087Z,70.79
2018-06-21T02:37:28.022Z,73.69
2018-06-21T02:39:55.989Z,70.44
2018-06-21T02:42:23.881Z,72.57
2018-06-21T02:44:51.820Z,72.32
2018-06-21T02:47:19.815Z,72.02
2018-06-21T02:49:47.768Z,67.48
2018-06-21T02:52:15.605Z,68.55
2018-06-21T02:54:43.462Z,71.22
2018-06-21T02:57:11.423Z,68.07
2018-06-21T02:59:39.307Z,69.84
2018-06-21T03:02:07.205Z,67.79
2018-06-21T03:04:35.170Z,67.32
2018-06-21T03:07:03.106Z,65.88
2018-06-21T03:09:30.957Z,67.31
2018-06-21T03:11:58.848Z,67.28
2018-06-21T03:14:26.770Z,66.66
2018-06-21T03:16:55.125Z,66.58
2018-06-21T03:19:23.542Z,68.29
2018-06-21T03:21:51.501Z,72.08
2018-06-21T03:24:19.410Z,67.62
2018-06-21T03:26:47.321Z,72.06
2018-06-21T03:29:15.228Z,74.65
2018-06-21T03:31:43.095Z,71.98
2018-06-21T03:34:10.973Z,73.71
2018-06-21T03:36:38.902Z,73.05
2018-06-21T03:39:06.957Z,75.76
2018-06-21T03:41:34.873Z,74.75
2018-06-21T03:44:07.655Z,73.81
2018-06-21T03:46:35.586Z,68.30
2018-06-21T03:49:03.537Z,69.01
2018-06-21T03:51:31.475Z,73.36
2018-06-21T03:53:59.430Z,75.57
2018-06-21T03:56:27.413Z,73.46
2018-06-21T03:58:55.338Z,75.77
2018-06-21T04:01:23.313Z,70.00
2018-06-21T04:03:51.203Z,71.04
2018-06-21T04:06:19.093Z,68.22
2018-06-21T04:08:46.990Z,73.87
2018-06-21T04:11:14.878Z,74.69
2018-06-21T04:13:42.856Z,72.34
2018-06-21T04:16:10.718Z,70.60
2018-06-21T04:18:38.571Z,70.73
2018-06-21T04:21:07.979Z,71.49
2018-06-21T04:23:35.986Z,72.66
2018-06-21T04:26:07.995Z,75.04
2018-06-21T04:28:36.028Z,76.71
2018-06-21T04:31:03.934Z,75.94
2018-06-21T04:33:31.879Z,76.23
2018-06-21T04:35:59.772Z,75.75
2018-06-21T04:38:27.771Z,74.77
2018-06-21T04:40:55.687Z,75.54
2018-06-21T04:43:23.598Z,73.84
2018-06-21T04:45:51.541Z,73.00
2018-06-21T04:48:19.378Z,71.17
2018-06-21T04:50:47.345Z,71.05
2018-06-21T04:53:15.685Z,72.31
2018-06-21T04:55:43.666Z,70.65
2018-06-21T04:58:11.903Z,70.25
2018-06-21T05:00:39.868Z,67.80
2018-06-21T05:03:07.886Z,64.67
2018-06-21T05:05:37.589Z,63.65
2018-06-21T05:08:05.845Z,58.92
2018-06-21T05:10:33.767Z,57.21
2018-06-21T05:13:01.779Z,53.46
2018-06-21T05:15:29.754Z,51.93
2018-06-21T05:17:58.059Z,49.22
2018-06-21T05:20:26.064Z,47.12
2018-06-21T05:22:53.969Z,45.51
2018-06-21T05:25:21.818Z,42.30
2018-06-21T05:27:49.717Z,41.06
2018-06-21T05:30:18.244Z,41.35
2018-06-21T05:32:46.676Z,41.76
2018-06-21T05:35:14.724Z,40.55
2018-06-21T05:37:42.621Z,39.62
2018-06-21T05:40:35.328Z,38.73
2018-06-21T05:43:04.675Z,37.27
2018-06-21T05:45:33.828Z,37.21
2018-06-21T05:48:03.197Z,35.64
2018-06-21T05:50:32.591Z,34.84
2018-06-21T05:53:01.573Z,35.17
2018-06-21T05:55:30.474Z,34.19
2018-06-21T05:57:58.673Z,36.12
2018-06-21T06:00:26.973Z,36.23
2018-06-21T06:02:55.673Z,36.80
2018-06-21T06:05:24.151Z,37.57
2018-06-21T06:07:52.065Z,38.89
2018-06-21T06:10:20.635Z,37.83
2018-06-21T06:12:48.513Z,38.17
2018-06-21T06:15:16.341Z,38.73
2018-06-21T06:17:44.181Z,38.40
2018-06-21T06:20:12.030Z,39.49
2018-06-21T06:22:39.885Z,39.79
2018-06-21T06:25:07.862Z,39.36
2018-06-21T06:27:35.713Z,40.35
2018-06-21T06:30:04.909Z,41.32
2018-06-21T06:32:32.759Z,39.66
2018-06-21T06:35:00.597Z,39.96
2018-06-21T06:37:28.452Z,39.30
2018-06-21T06:39:56.306Z,39.61
2018-06-21T06:42:24.204Z,39.52
2018-06-21T06:44:52.072Z,38.34
2018-06-21T06:47:19.949Z,39.11
2018-06-21T06:49:47.777Z,39.77
2018-06-21T06:52:15.689Z,39.81
2018-06-21T06:54:43.669Z,39.15
2018-06-21T06:57:11.630Z,38.71
2018-06-21T06:59:39.436Z,39.02
2018-06-21T07:02:07.261Z,37.99
2018-06-21T07:04:35.121Z,37.40
2018-06-21T07:07:03.048Z,38.93
2018-06-21T07:09:31.190Z,36.67
2018-06-21T07:11:59.087Z,35.73
2018-06-21T07:14:27.013Z,34.18
2018-06-21T07:16:54.893Z,34.61
2018-06-21T07:19:22.801Z,35.35
2018-06-21T07:21:50.633Z,35.30
2018-06-21T07:24:18.453Z,34.86
2018-06-21T07:26:46.257Z,35.69
2018-06-21T07:29:14.132Z,35.30
2018-06-21T07:31:42.000Z,34.49
2018-06-21T07:34:09.982Z,34.52
2018-06-21T07:36:37.849Z,35.41
2018-06-21T07:39:08.215Z,35.73
2018-06-21T07:41:36.043Z,35.60
2018-06-21T07:44:04.054Z,33.99
2018-06-21T07:46:32.388Z,34.17
2018-06-21T07:49:00.320Z,33.77
2018-06-21T07:51:28.221Z,34.96
2018-06-21T07:53:56.225Z,35.01
2018-06-21T07:56:23.998Z,34.85
2018-06-21T07:58:51.809Z,35.81
2018-06-21T08:01:19.734Z,36.16
2018-06-21T08:03:47.628Z,34.92
2018-06-21T08:06:15.473Z,35.78
2018-06-21T08:08:43.308Z,36.30
2018-06-21T08:11:11.204Z,35.41
2018-06-21T08:13:39.179Z,36.20
2018-06-21T08:16:07.372Z,34.78
2018-06-21T08:18:35.249Z,35.84
2018-06-21T08:21:03.172Z,35.73
2018-06-21T08:23:31.012Z,35.56
2018-06-21T08:25:58.908Z,35.75
2018-06-21T08:28:26.716Z,35.61
2018-06-21T08:30:54.548Z,35.92
2018-06-21T08:33:22.437Z,35.54
2018-06-21T08:35:50.438Z,35.70
2018-06-21T08:38:18.306Z,35.12
2018-06-21T08:40:46.102Z,35.64
2018-06-21T08:43:13.904Z,34.74
2018-06-21T08:45:41.801Z,34.49
2018-06-21T08:48:09.945Z,34.54
2018-06-21T08:50:37.810Z,35.06
2018-06-21T08:53:05.729Z,34.85
2018-06-21T08:55:33.681Z,33.46
2018-06-21T08:58:01.564Z,34.17
2018-06-21T09:00:29.378Z,33.98
2018-06-21T09:02:57.265Z,33.10
2018-06-21T09:05:25.180Z,33.00
2018-06-21T09:07:53.118Z,33.67
2018-06-21T09:10:20.977Z,33.02
2018-06-21T09:12:48.833Z,32.94
2018-06-21T09:15:16.697Z,32.98
2018-06-21T09:17:45.227Z,33.69
2018-06-21T09:20:13.185Z,33.71
2018-06-21T09:22:41.109Z,34.31
2018-06-21T09:25:08.929Z,34.68
2018-06-21T09:27:36.812Z,34.58
2018-06-21T09:30:04.842Z,34.25
2018-06-21T09:32:32.660Z,34.46
2018-06-21T09:35:00.598Z,34.16
2018-06-21T09:37:34.264Z,34.01
2018-06-21T09:40:08.022Z,33.64
2018-06-21T09:43:50.298Z,31.45
2018-06-21T09:46:14.871Z,31.33
2018-06-21T09:48:48.191Z,32.48
2018-06-21T09:51:16.102Z,32.26
2018-06-21T09:53:43.966Z,32.72
2018-06-21T09:56:11.838Z,33.79
2018-06-21T09:58:39.763Z,35.81
2018-06-21T10:01:07.616Z,37.53
2018-06-21T10:03:35.601Z,37.78
2018-06-21T10:06:03.583Z,38.64
2018-06-21T10:08:31.517Z,38.62
2018-06-21T10:10:59.385Z,38.60
2018-06-21T10:13:27.292Z,38.73
2018-06-21T10:15:55.201Z,38.72
2018-06-21T10:18:23.104Z,38.30
2018-06-21T10:20:50.946Z,38.14
2018-06-21T10:23:18.865Z,37.92
2018-06-21T10:25:46.777Z,38.30
2018-06-21T10:28:14.705Z,37.74
2018-06-21T10:30:42.526Z,36.88
2018-06-21T10:33:10.373Z,36.52
2018-06-21T10:35:38.270Z,35.88
2018-06-21T10:38:06.324Z,36.31
2018-06-21T10:40:34.241Z,36.05
2018-06-21T10:43:02.082Z,36.47
2018-06-21T10:45:30.021Z,36.99
2018-06-21T10:47:57.874Z,37.30
2018-06-21T10:50:25.733Z,36.95
2018-06-21T10:52:53.689Z,37.24
2018-06-21T10:55:21.565Z,37.09
2018-06-21T10:57:49.489Z,37.53
2018-06-21T11:00:17.518Z,37.97
2018-06-21T11:02:45.317Z,38.72
2018-06-21T11:05:13.262Z,39.48
2018-06-21T11:07:41.169Z,39.08
2018-06-21T11:12:45.722Z,41.12
2018-06-21T11:15:13.586Z,41.00
2018-06-21T11:17:41.456Z,41.55
2018-06-21T11:20:09.316Z,41.16
2018-06-21T11:22:37.197Z,41.26
2018-06-21T11:25:05.375Z,42.11
2018-06-21T11:27:33.351Z,41.58
2018-06-21T11:30:01.354Z,42.22
2018-06-21T11:32:29.467Z,41.46
2018-06-21T11:35:02.033Z,41.34
2018-06-21T11:37:39.478Z,41.35
2018-06-21T11:40:07.525Z,40.23
2018-06-21T11:42:37.587Z,39.50
2018-06-21T11:45:06.121Z,39.32
2018-06-21T11:47:36.066Z,37.74
2018-06-21T11:50:04.144Z,36.24
2018-06-21T11:52:31.977Z,35.87
2018-06-21T11:54:59.900Z,36.46
2018-06-21T11:57:27.789Z,34.29
2018-06-21T11:59:55.701Z,34.16
2018-06-21T12:02:23.593Z,35.10
2018-06-21T12:04:53.190Z,33.18
2018-06-21T12:07:21.013Z,32.52
2018-06-21T12:09:48.892Z,31.47
2018-06-21T12:12:16.709Z,31.04
2018-06-21T12:14:44.785Z,32.20
2018-06-21T12:17:12.616Z,30.12
2018-06-21T12:19:40.505Z,30.42
2018-06-21T12:22:08.366Z,29.40
2018-06-21T12:24:36.185Z,28.24
2018-06-21T12:27:04.066Z,26.88
2018-06-21T12:29:31.921Z,25.69
2018-06-21T12:32:00.070Z,24.65
2018-06-21T12:34:27.862Z,26.41
2018-06-21T12:36:56.001Z,24.93
2018-06-21T12:39:23.834Z,24.72
2018-06-21T12:41:51.660Z,24.04
2018-06-21T12:44:19.573Z,22.83
2018-06-21T12:46:47.429Z,22.55
2018-06-21T12:49:15.302Z,21.99
2018-06-21T12:51:43.132Z,21.75
2018-06-21T12:54:10.978Z,22.66
2018-06-21T12:56:38.851Z,23.48
2018-06-21T12:59:06.757Z,22.41
2018-06-21T13:01:34.670Z,22.67
2018-06-21T13:04:02.586Z,22.19
2018-06-21T13:06:30.410Z,23.42
2018-06-21T13:09:15.582Z,20.38
2018-06-21T13:13:04.173Z,22.62
2018-06-21T13:15:32.161Z,23.67
2018-06-21T13:18:00.021Z,23.70
2018-06-21T13:20:28.025Z,23.41
2018-06-21T13:22:55.907Z,23.44
2018-06-21T13:25:23.766Z,23.22
2018-06-21T13:27:51.660Z,23.86
2018-06-21T13:30:19.733Z,23.34
2018-06-21T13:32:47.653Z,22.66
2018-06-21T13:35:15.724Z,22.69
2018-06-21T13:37:43.723Z,22.41
2018-06-21T13:40:11.659Z,22.19
2018-06-21T13:42:39.595Z,22.68
2018-06-21T13:45:07.577Z,22.97
2018-06-21T13:47:35.410Z,23.07
2018-06-21T13:50:03.712Z,22.97
2018-06-21T13:52:31.610Z,21.96
2018-06-21T13:54:59.471Z,22.03
2018-06-21T13:57:27.320Z,22.94
2018-06-21T13:59:55.169Z,23.04
2018-06-21T14:02:23.105Z,21.29
2018-06-21T14:04:51.031Z,19.75
2018-06-21T14:07:19.202Z,19.98
2018-06-21T14:09:47.112Z,20.08
2018-06-21T14:12:14.960Z,19.91
2018-06-21T14:14:42.847Z,20.32
2018-06-21T14:17:10.721Z,21.02
2018-06-21T14:19:38.606Z,21.08
2018-06-21T14:22:06.505Z,21.05
2018-06-21T14:24:34.458Z,22.66
2018-06-21T14:27:02.305Z,21.95
2018-06-21T14:29:30.197Z,23.83
2018-06-21T14:31:58.101Z,22.75
2018-06-21T14:34:25.932Z,22.72
2018-06-21T14:36:53.817Z,22.36
2018-06-21T14:39:21.816Z,23.77
2018-06-21T14:41:49.701Z,23.53
2018-06-21T14:44:17.708Z,23.97
2018-06-21T14:46:45.620Z,23.22
2018-06-21T14:49:13.512Z,22.94
2018-06-21T14:51:41.447Z,24.03
2018-06-21T14:54:09.340Z,24.29
2018-06-21T14:56:37.267Z,24.21
2018-06-21T14:59:05.200Z,24.84
2018-06-21T15:01:33.101Z,24.87
2018-06-21T15:04:00.937Z,26.61
2018-06-21T15:06:28.789Z,25.06
2018-06-21T15:08:56.685Z,25.68
2018-06-21T15:11:24.834Z,22.93
2018-06-21T15:13:52.509Z,24.57
2018-06-21T15:16:21.601Z,24.29
2018-06-21T15:18:49.574Z,23.70
2018-06-21T15:21:17.929Z,23.55
2018-06-21T15:23:46.073Z,25.54
2018-06-21T15:26:13.992Z,25.43
2018-06-21T15:28:42.161Z,25.29
2018-06-21T15:31:10.077Z,26.05
2018-06-21T15:33:37.949Z,26.08
2018-06-21T15:36:05.907Z,24.25
2018-06-21T15:38:33.840Z,25.05
2018-06-21T15:41:01.709Z,24.82
2018-06-21T15:43:29.633Z,24.91
2018-06-21T15:45:57.504Z,24.37
2018-06-21T15:48:25.572Z,25.79
2018-06-21T15:50:53.541Z,25.52
2018-06-21T15:53:21.341Z,24.60
2018-06-21T15:55:49.161Z,25.71
2018-06-21T15:58:17.049Z,24.86
2018-06-21T16:00:44.960Z,24.81
2018-06-21T16:03:12.854Z,22.88
2018-06-21T16:05:40.702Z,23.76
2018-06-21T16:08:08.648Z,23.51
2018-06-21T16:10:36.553Z,23.38
2018-06-21T16:13:04.424Z,23.63
2018-06-21T16:15:32.301Z,24.69
2018-06-21T16:18:00.102Z,24.90
2018-06-21T16:20:27.974Z,24.38
2018-06-21T16:22:56.045Z,24.38
2018-06-21T16:25:23.863Z,24.13
2018-06-21T16:27:51.686Z,25.70
2018-06-21T16:30:19.675Z,25.49
2018-06-21T16:32:47.613Z,25.07
2018-06-21T16:35:16.793Z,24.64
2018-06-21T16:37:44.773Z,25.67
2018-06-21T16:40:12.913Z,24.71
2018-06-21T16:42:41.225Z,25.41
2018-06-21T16:45:09.297Z,25.64
2018-06-21T16:47:37.176Z,24.94
2018-06-21T16:50:05.086Z,26.46
2018-06-21T16:52:32.988Z,25.30
2018-06-21T16:55:00.842Z,26.09
2018-06-21T16:57:28.745Z,25.29
2018-06-21T16:59:56.904Z,25.49
2018-06-21T17:02:24.792Z,25.70
2018-06-21T17:04:52.682Z,26.21
2018-06-21T17:07:20.659Z,26.16
2018-06-21T17:09:48.517Z,26.34
2018-06-21T17:12:16.897Z,27.08
2018-06-21T17:14:44.871Z,26.71
2018-06-21T17:17:12.756Z,26.75
2018-06-21T17:19:43.333Z,26.49
2018-06-21T17:22:11.241Z,27.11
2018-06-21T17:24:39.787Z,27.54
2018-06-21T17:27:08.237Z,27.46
2018-06-21T17:29:37.174Z,27.33
2018-06-21T17:32:05.761Z,26.87
2018-06-21T17:34:33.795Z,27.34
2018-06-21T17:37:02.566Z,27.70
2018-06-21T17:39:30.465Z,27.23
2018-06-21T17:41:58.414Z,27.39
2018-06-21T17:44:26.254Z,28.48
2018-06-21T17:46:54.513Z,28.31
2018-06-21T17:49:22.424Z,28.34
2018-06-21T17:51:50.369Z,28.36
2018-06-21T17:54:18.338Z,27.92
2018-06-21T17:56:46.199Z,28.33
2018-06-21T17:59:14.128Z,29.00
2018-06-21T18:01:42.113Z,28.43
2018-06-21T18:04:10.224Z,28.32
2018-06-21T18:06:38.101Z,28.53
2018-06-21T18:09:07.464Z,29.28
2018-06-21T18:11:35.509Z,29.50
2018-06-21T18:14:03.580Z,29.42
2018-06-21T18:16:31.485Z,29.96
2018-06-21T18:18:59.376Z,29.77
2018-06-21T18:21:27.246Z,30.21
2018-06-21T18:23:55.141Z,30.49
2018-06-21T18:26:23.264Z,29.96
2018-06-21T18:28:51.228Z,29.93
2018-06-21T18:31:19.077Z,30.19
2018-06-21T18:33:47.150Z,30.18
2018-06-21T18:36:15.057Z,30.59
2018-06-21T18:38:42.900Z,30.60
2018-06-21T18:41:10.889Z,31.23
2018-06-21T18:43:38.779Z,31.51
2018-06-21T18:46:06.688Z,31.50
2018-06-21T18:48:34.585Z,31.30
2018-06-21T18:51:02.457Z,31.67
2018-06-21T18:53:30.301Z,31.40
2018-06-21T18:55:58.177Z,32.15
2018-06-21T18:58:26.078Z,31.79
2018-06-21T19:00:53.973Z,32.64
2018-06-21T19:03:26.041Z,32.20
2018-06-21T19:05:53.990Z,32.72
2018-06-21T19:08:27.460Z,33.02
2018-06-21T19:11:01.049Z,33.40
2018-06-21T19:13:28.928Z,33.05
2018-06-21T19:15:58.794Z,33.34
2018-06-21T19:18:28.053Z,34.42
2018-06-21T19:20:55.978Z,34.94
2018-06-21T19:23:23.923Z,34.33
2018-06-21T19:25:51.741Z,35.16
2018-06-21T19:28:19.629Z,35.60
2018-06-21T19:30:47.577Z,35.34
2018-06-21T19:33:15.428Z,35.70
2018-06-21T19:35:43.259Z,35.81
2018-06-21T19:38:11.062Z,36.16
2018-06-21T19:40:38.877Z,36.59
2018-06-21T19:43:06.857Z,36.18
2018-06-21T19:45:34.662Z,36.79
2018-06-21T19:48:02.553Z,37.25
2018-06-21T19:50:30.449Z,37.27
2018-06-21T19:52:58.349Z,37.22
2018-06-21T19:55:26.294Z,37.22
2018-06-21T19:57:54.164Z,37.26
2018-06-21T20:00:22.098Z,37.15
2018-06-21T20:02:55.712Z,37.18
2018-06-21T20:05:23.565Z,37.44
2018-06-21T20:07:51.550Z,37.26
2018-06-21T20:10:19.491Z,37.54
2018-06-21T20:12:47.345Z,37.59
2018-06-21T20:15:15.201Z,38.08
2018-06-21T20:17:43.093Z,38.37
2018-06-21T20:20:44.983Z,38.54
2018-06-21T20:23:12.916Z,39.00
2018-06-21T20:25:40.842Z,39.31
2018-06-21T20:28:08.761Z,39.55
2018-06-21T20:30:36.680Z,40.27
2018-06-21T20:33:04.949Z,39.68
2018-06-21T20:35:32.882Z,40.25
2018-06-21T20:38:01.505Z,40.82
2018-06-21T20:40:29.341Z,40.34
2018-06-21T20:42:57.265Z,40.55
2018-06-21T20:45:25.198Z,40.76
2018-06-21T20:47:53.805Z,40.93
2018-06-21T20:50:21.706Z,40.76
2018-06-21T20:52:49.832Z,40.87
2018-06-21T20:55:17.732Z,40.42
2018-06-21T20:57:45.809Z,41.53
2018-06-21T21:00:13.738Z,41.11
2018-06-21T21:02:41.601Z,41.76
2018-06-21T21:05:15.156Z,41.77
2018-06-21T21:07:44.318Z,42.33
2018-06-21T21:10:13.594Z,41.51
2018-06-21T21:12:41.614Z,42.80
2018-06-21T21:15:10.557Z,43.32
2018-06-21T21:17:38.454Z,42.94
2018-06-21T21:20:07.571Z,43.03
2018-06-21T21:22:36.289Z,42.67
2018-06-21T21:25:04.249Z,43.36
2018-06-21T21:27:32.152Z,43.25
2018-06-21T21:30:00.068Z,44.34
2018-06-21T21:32:27.956Z,43.64
2018-06-21T21:34:56.966Z,44.60
2018-06-21T21:37:25.353Z,45.07
2018-06-21T21:39:59.050Z,44.86
2018-06-21T21:42:27.490Z,45.58
2018-06-21T21:44:55.277Z,45.19
2018-06-21T21:47:23.187Z,45.79
2018-06-21T21:49:51.100Z,46.28
2018-06-21T21:52:20.741Z,45.81
2018-06-21T21:54:48.620Z,46.72
2018-06-21T21:57:16.585Z,47.99
2018-06-21T21:59:44.621Z,47.62
2018-06-21T22:02:12.508Z,46.19
2018-06-21T22:04:40.389Z,47.31
2018-06-21T22:07:08.256Z,48.28
2018-06-21T22:09:36.098Z,47.50
2018-06-21T22:12:06.620Z,48.58
2018-06-21T22:14:40.018Z,49.07
2018-06-21T22:17:08.421Z,48.17
2018-06-21T22:19:36.362Z,48.55
2018-06-21T22:22:04.241Z,48.42
2018-06-21T22:24:36.139Z,48.15
2018-06-21T22:27:10.681Z,48.52
2018-06-21T22:29:38.681Z,48.77
2018-06-21T22:32:06.541Z,48.74
2018-06-21T22:34:34.334Z,49.35
2018-06-21T22:37:03.468Z,49.79
2018-06-21T22:39:33.701Z,49.57
2018-06-21T22:42:01.548Z,49.30
2018-06-21T22:44:38.112Z,50.20
2018-06-21T22:47:06.085Z,49.68
2018-06-21T22:49:33.933Z,49.48
2018-06-21T22:52:01.766Z,50.28
2018-06-21T22:54:29.619Z,49.91
2018-06-21T22:56:57.435Z,51.08
2018-06-21T22:59:25.286Z,49.54
2018-06-21T23:01:53.360Z,51.79
2018-06-21T23:04:21.292Z,50.24
2018-06-21T23:06:49.161Z,52.32
2018-06-21T23:09:17.060Z,51.58
2018-06-21T23:11:44.919Z,53.22
2018-06-21T23:14:12.774Z,52.44
2018-06-21T23:16:40.716Z,53.20
2018-06-21T23:19:25.728Z,52.04
2018-06-21T23:21:53.874Z,52.28
2018-06-21T23:24:22.339Z,52.25
2018-06-21T23:26:50.569Z,52.35
2018-06-21T23:29:18.452Z,52.24
2018-06-21T23:31:46.244Z,53.53
2018-06-21T23:34:14.064Z,52.64
2018-06-21T23:36:41.861Z,52.32
2018-06-21T23:39:10.729Z,52.65
2018-06-21T23:41:38.677Z,53.60
2018-06-21T23:44:06.594Z,52.88
2018-06-21T23:46:34.705Z,52.35
2018-06-21T23:49:02.586Z,52.41
2018-06-21T23:51:30.466Z,52.41
2018-06-21T23:53:58.278Z,54.01
2018-06-21T23:56:26.097Z,52.84
2018-06-21T23:58:53.884Z,53.71
